sensor_id;sensor_type;location;lat;lon;timestamp;P1;durP1;ratioP1;P2;durP2;ratioP2
52838;SDS011;39219;53.678;9.856;2022-07-04T00:01:03;10.05;;;5.50;;
52838;SDS011;39219;53.678;9.856;2022-07-04T00:03:30;12.80;;;5.18;;
52838;SDS011;39219;53.678;9.856;2022-07-04T00:05:56;10.45;;;5.85;;
52838;SDS011;39219;53.678;9.856;2022-07-04T00:08:24;12.05;;;5.75;;
52838;SDS011;39219;53.678;9.856;2022-07-04T00:10:51;13.82;;;5.72;;
52838;SDS011;39219;53.678;9.856;2022-07-04T00:13:17;12.35;;;5.20;;
52838;SDS011;39219;53.678;9.856;2022-07-04T00:15:44;13.02;;;5.22;;
52838;SDS011;39219;53.678;9.856;2022-07-04T00:18:10;12.23;;;5.78;;
52838;SDS011;39219;53.678;9.856;2022-07-04T00:20:37;11.98;;;5.30;;
52838;SDS011;39219;53.678;9.856;2022-07-04T00:23:03;13.45;;;5.72;;
52838;SDS011;39219;53.678;9.856;2022-07-04T00:25:31;15.15;;;5.13;;
52838;SDS011;39219;53.678;9.856;2022-07-04T00:27:57;10.35;;;5.20;;
52838;SDS011;39219;53.678;9.856;2022-07-04T00:30:24;11.27;;;4.90;;
52838;SDS011;39219;53.678;9.856;2022-07-04T00:32:50;11.70;;;4.80;;
52838;SDS011;39219;53.678;9.856;2022-07-04T00:35:17;12.48;;;5.28;;
52838;SDS011;39219;53.678;9.856;2022-07-04T00:37:43;13.77;;;5.40;;
52838;SDS011;39219;53.678;9.856;2022-07-04T00:40:10;11.73;;;5.28;;
52838;SDS011;39219;53.678;9.856;2022-07-04T00:42:38;11.40;;;5.20;;
52838;SDS011;39219;53.678;9.856;2022-07-04T00:45:05;12.55;;;5.72;;
52838;SDS011;39219;53.678;9.856;2022-07-04T00:47:33;13.63;;;6.10;;
52838;SDS011;39219;53.678;9.856;2022-07-04T00:49:59;13.55;;;6.07;;
52838;SDS011;39219;53.678;9.856;2022-07-04T00:52:26;11.65;;;6.10;;
52838;SDS011;39219;53.678;9.856;2022-07-04T00:54:53;13.55;;;5.95;;
52838;SDS011;39219;53.678;9.856;2022-07-04T00:57:20;12.25;;;6.45;;
52838;SDS011;39219;53.678;9.856;2022-07-04T00:59:48;14.10;;;6.60;;
52838;SDS011;39219;53.678;9.856;2022-07-04T01:02:14;13.82;;;6.72;;
52838;SDS011;39219;53.678;9.856;2022-07-04T01:04:41;14.57;;;6.88;;
52838;SDS011;39219;53.678;9.856;2022-07-04T01:07:08;19.40;;;8.60;;
52838;SDS011;39219;53.678;9.856;2022-07-04T01:09:37;18.98;;;8.13;;
52838;SDS011;39219;53.678;9.856;2022-07-04T01:12:04;18.25;;;7.82;;
52838;SDS011;39219;53.678;9.856;2022-07-04T01:14:31;17.00;;;7.53;;
52838;SDS011;39219;53.678;9.856;2022-07-04T01:16:59;17.27;;;7.00;;
52838;SDS011;39219;53.678;9.856;2022-07-04T01:19:25;17.05;;;7.32;;
52838;SDS011;39219;53.678;9.856;2022-07-04T01:21:53;17.20;;;7.50;;
52838;SDS011;39219;53.678;9.856;2022-07-04T01:24:20;19.42;;;7.63;;
52838;SDS011;39219;53.678;9.856;2022-07-04T01:26:46;19.85;;;7.72;;
52838;SDS011;39219;53.678;9.856;2022-07-04T01:29:12;19.27;;;7.82;;
52838;SDS011;39219;53.678;9.856;2022-07-04T01:31:39;16.88;;;8.20;;
52838;SDS011;39219;53.678;9.856;2022-07-04T01:34:06;18.20;;;7.60;;
52838;SDS011;39219;53.678;9.856;2022-07-04T01:36:32;17.52;;;8.10;;
52838;SDS011;39219;53.678;9.856;2022-07-04T01:39:01;17.77;;;8.52;;
52838;SDS011;39219;53.678;9.856;2022-07-04T01:41:32;16.48;;;7.55;;
52838;SDS011;39219;53.678;9.856;2022-07-04T01:43:59;13.68;;;7.22;;
52838;SDS011;39219;53.678;9.856;2022-07-04T01:46:25;13.70;;;7.68;;
52838;SDS011;39219;53.678;9.856;2022-07-04T01:48:52;13.00;;;7.30;;
52838;SDS011;39219;53.678;9.856;2022-07-04T01:51:18;16.55;;;7.43;;
52838;SDS011;39219;53.678;9.856;2022-07-04T01:53:45;14.30;;;7.65;;
52838;SDS011;39219;53.678;9.856;2022-07-04T01:56:13;16.90;;;7.90;;
52838;SDS011;39219;53.678;9.856;2022-07-04T01:58:39;15.57;;;7.82;;
52838;SDS011;39219;53.678;9.856;2022-07-04T02:01:06;17.15;;;7.40;;
52838;SDS011;39219;53.678;9.856;2022-07-04T02:03:50;18.25;;;9.73;;
52838;SDS011;39219;53.678;9.856;2022-07-04T02:06:16;20.05;;;9.88;;
52838;SDS011;39219;53.678;9.856;2022-07-04T02:08:43;20.30;;;11.85;;
52838;SDS011;39219;53.678;9.856;2022-07-04T02:11:28;23.85;;;12.10;;
52838;SDS011;39219;53.678;9.856;2022-07-04T02:14:15;28.98;;;12.68;;
52838;SDS011;39219;53.678;9.856;2022-07-04T02:16:40;20.85;;;12.15;;
52838;SDS011;39219;53.678;9.856;2022-07-04T02:19:07;20.60;;;11.30;;
52838;SDS011;39219;53.678;9.856;2022-07-04T02:21:33;22.90;;;11.00;;
52838;SDS011;39219;53.678;9.856;2022-07-04T02:24:00;19.10;;;10.52;;
52838;SDS011;39219;53.678;9.856;2022-07-04T02:26:26;25.88;;;11.48;;
52838;SDS011;39219;53.678;9.856;2022-07-04T02:28:54;19.40;;;11.38;;
52838;SDS011;39219;53.678;9.856;2022-07-04T02:31:20;22.33;;;12.05;;
52838;SDS011;39219;53.678;9.856;2022-07-04T02:33:47;27.08;;;13.20;;
52838;SDS011;39219;53.678;9.856;2022-07-04T02:36:13;23.65;;;13.85;;
52838;SDS011;39219;53.678;9.856;2022-07-04T02:38:40;27.33;;;14.30;;
52838;SDS011;39219;53.678;9.856;2022-07-04T02:41:06;24.23;;;13.77;;
52838;SDS011;39219;53.678;9.856;2022-07-04T02:43:33;22.45;;;13.23;;
52838;SDS011;39219;53.678;9.856;2022-07-04T02:46:01;25.33;;;13.63;;
52838;SDS011;39219;53.678;9.856;2022-07-04T02:48:27;22.50;;;13.13;;
52838;SDS011;39219;53.678;9.856;2022-07-04T02:50:54;23.02;;;13.13;;
52838;SDS011;39219;53.678;9.856;2022-07-04T02:53:20;24.67;;;13.55;;
52838;SDS011;39219;53.678;9.856;2022-07-04T02:55:47;24.33;;;12.88;;
52838;SDS011;39219;53.678;9.856;2022-07-04T02:58:14;23.48;;;13.57;;
52838;SDS011;39219;53.678;9.856;2022-07-04T03:00:40;25.67;;;14.35;;
52838;SDS011;39219;53.678;9.856;2022-07-04T03:03:08;24.67;;;14.00;;
52838;SDS011;39219;53.678;9.856;2022-07-04T03:05:34;24.75;;;13.68;;
52838;SDS011;39219;53.678;9.856;2022-07-04T03:08:01;25.73;;;14.30;;
52838;SDS011;39219;53.678;9.856;2022-07-04T03:10:27;26.58;;;14.85;;
52838;SDS011;39219;53.678;9.856;2022-07-04T03:12:54;23.55;;;13.55;;
52838;SDS011;39219;53.678;9.856;2022-07-04T03:15:20;25.25;;;13.98;;
52838;SDS011;39219;53.678;9.856;2022-07-04T03:17:47;23.88;;;14.25;;
52838;SDS011;39219;53.678;9.856;2022-07-04T03:20:15;26.95;;;14.48;;
52838;SDS011;39219;53.678;9.856;2022-07-04T03:22:41;24.48;;;13.15;;
52838;SDS011;39219;53.678;9.856;2022-07-04T03:25:08;23.80;;;13.20;;
52838;SDS011;39219;53.678;9.856;2022-07-04T03:27:34;24.92;;;13.05;;
52838;SDS011;39219;53.678;9.856;2022-07-04T03:30:01;25.30;;;13.45;;
52838;SDS011;39219;53.678;9.856;2022-07-04T03:32:27;24.17;;;13.27;;
52838;SDS011;39219;53.678;9.856;2022-07-04T03:34:54;23.70;;;13.50;;
52838;SDS011;39219;53.678;9.856;2022-07-04T03:37:22;22.88;;;13.30;;
52838;SDS011;39219;53.678;9.856;2022-07-04T03:39:48;23.52;;;13.60;;
52838;SDS011;39219;53.678;9.856;2022-07-04T03:42:15;27.65;;;14.50;;
52838;SDS011;39219;53.678;9.856;2022-07-04T03:44:41;30.33;;;14.95;;
52838;SDS011;39219;53.678;9.856;2022-07-04T03:47:08;27.15;;;15.30;;
52838;SDS011;39219;53.678;9.856;2022-07-04T03:49:34;22.52;;;14.50;;
52838;SDS011;39219;53.678;9.856;2022-07-04T03:52:01;26.80;;;14.63;;
52838;SDS011;39219;53.678;9.856;2022-07-04T03:54:29;27.60;;;15.93;;
52838;SDS011;39219;53.678;9.856;2022-07-04T03:56:55;29.50;;;14.85;;
52838;SDS011;39219;53.678;9.856;2022-07-04T03:59:22;26.23;;;14.95;;
52838;SDS011;39219;53.678;9.856;2022-07-04T04:01:48;25.42;;;14.07;;
52838;SDS011;39219;53.678;9.856;2022-07-04T04:04:14;24.92;;;14.55;;
52838;SDS011;39219;53.678;9.856;2022-07-04T04:06:58;22.70;;;13.80;;
52838;SDS011;39219;53.678;9.856;2022-07-04T04:09:25;24.20;;;13.90;;
52838;SDS011;39219;53.678;9.856;2022-07-04T04:11:53;23.33;;;14.45;;
52838;SDS011;39219;53.678;9.856;2022-07-04T04:14:19;21.83;;;14.05;;
52838;SDS011;39219;53.678;9.856;2022-07-04T04:16:46;26.23;;;14.13;;
52838;SDS011;39219;53.678;9.856;2022-07-04T04:19:12;25.70;;;13.82;;
52838;SDS011;39219;53.678;9.856;2022-07-04T04:21:39;23.15;;;14.00;;
52838;SDS011;39219;53.678;9.856;2022-07-04T04:24:05;23.88;;;13.68;;
52838;SDS011;39219;53.678;9.856;2022-07-04T04:26:33;24.23;;;13.45;;
52838;SDS011;39219;53.678;9.856;2022-07-04T04:29:01;24.05;;;14.30;;
52838;SDS011;39219;53.678;9.856;2022-07-04T04:31:28;23.85;;;13.68;;
52838;SDS011;39219;53.678;9.856;2022-07-04T04:33:55;23.15;;;13.70;;
52838;SDS011;39219;53.678;9.856;2022-07-04T04:36:23;24.38;;;13.45;;
52838;SDS011;39219;53.678;9.856;2022-07-04T04:38:49;23.52;;;13.07;;
52838;SDS011;39219;53.678;9.856;2022-07-04T04:41:16;21.83;;;12.55;;
52838;SDS011;39219;53.678;9.856;2022-07-04T04:43:42;21.88;;;12.73;;
52838;SDS011;39219;53.678;9.856;2022-07-04T04:46:10;19.48;;;12.02;;
52838;SDS011;39219;53.678;9.856;2022-07-04T04:48:37;19.05;;;11.60;;
52838;SDS011;39219;53.678;9.856;2022-07-04T04:51:04;17.60;;;10.73;;
52838;SDS011;39219;53.678;9.856;2022-07-04T04:53:31;19.08;;;10.63;;
52838;SDS011;39219;53.678;9.856;2022-07-04T04:55:58;18.05;;;9.50;;
52838;SDS011;39219;53.678;9.856;2022-07-04T04:58:24;18.02;;;9.70;;
52838;SDS011;39219;53.678;9.856;2022-07-04T05:00:51;18.55;;;9.15;;
52838;SDS011;39219;53.678;9.856;2022-07-04T05:03:19;15.57;;;8.32;;
52838;SDS011;39219;53.678;9.856;2022-07-04T05:05:45;13.27;;;7.05;;
52838;SDS011;39219;53.678;9.856;2022-07-04T05:08:12;10.63;;;5.70;;
52838;SDS011;39219;53.678;9.856;2022-07-04T05:10:39;11.02;;;4.60;;
52838;SDS011;39219;53.678;9.856;2022-07-04T05:13:05;9.95;;;4.00;;
52838;SDS011;39219;53.678;9.856;2022-07-04T05:15:32;5.82;;;3.50;;
52838;SDS011;39219;53.678;9.856;2022-07-04T05:17:59;7.10;;;3.67;;
52838;SDS011;39219;53.678;9.856;2022-07-04T05:20:27;6.18;;;3.10;;
52838;SDS011;39219;53.678;9.856;2022-07-04T05:22:53;6.95;;;3.67;;
52838;SDS011;39219;53.678;9.856;2022-07-04T05:25:19;6.68;;;3.15;;
52838;SDS011;39219;53.678;9.856;2022-07-04T05:27:46;7.22;;;3.00;;
52838;SDS011;39219;53.678;9.856;2022-07-04T05:30:13;6.45;;;3.22;;
52838;SDS011;39219;53.678;9.856;2022-07-04T05:32:40;7.35;;;2.97;;
52838;SDS011;39219;53.678;9.856;2022-07-04T05:35:06;4.68;;;2.90;;
52838;SDS011;39219;53.678;9.856;2022-07-04T05:37:35;10.85;;;2.78;;
52838;SDS011;39219;53.678;9.856;2022-07-04T05:40:01;5.38;;;2.60;;
52838;SDS011;39219;53.678;9.856;2022-07-04T05:42:28;6.03;;;2.70;;
52838;SDS011;39219;53.678;9.856;2022-07-04T05:44:55;5.65;;;2.38;;
52838;SDS011;39219;53.678;9.856;2022-07-04T05:47:21;8.15;;;2.28;;
52838;SDS011;39219;53.678;9.856;2022-07-04T05:49:50;3.45;;;2.00;;
52838;SDS011;39219;53.678;9.856;2022-07-04T05:52:17;6.97;;;1.98;;
52838;SDS011;39219;53.678;9.856;2022-07-04T05:54:45;5.70;;;2.25;;
52838;SDS011;39219;53.678;9.856;2022-07-04T05:57:11;8.57;;;2.30;;
52838;SDS011;39219;53.678;9.856;2022-07-04T05:59:38;5.25;;;2.30;;
52838;SDS011;39219;53.678;9.856;2022-07-04T06:02:04;7.10;;;2.13;;
52838;SDS011;39219;53.678;9.856;2022-07-04T06:04:31;4.03;;;2.10;;
52838;SDS011;39219;53.678;9.856;2022-07-04T06:06:57;5.70;;;2.20;;
52838;SDS011;39219;53.678;9.856;2022-07-04T06:09:24;5.70;;;2.13;;
52838;SDS011;39219;53.678;9.856;2022-07-04T06:11:52;5.38;;;2.38;;
52838;SDS011;39219;53.678;9.856;2022-07-04T06:14:18;6.32;;;2.00;;
52838;SDS011;39219;53.678;9.856;2022-07-04T06:16:45;5.25;;;2.00;;
52838;SDS011;39219;53.678;9.856;2022-07-04T06:19:11;4.43;;;2.22;;
52838;SDS011;39219;53.678;9.856;2022-07-04T06:21:38;4.10;;;1.98;;
52838;SDS011;39219;53.678;9.856;2022-07-04T06:24:04;3.35;;;1.85;;
52838;SDS011;39219;53.678;9.856;2022-07-04T06:26:31;5.28;;;1.83;;
52838;SDS011;39219;53.678;9.856;2022-07-04T06:28:58;4.53;;;1.52;;
52838;SDS011;39219;53.678;9.856;2022-07-04T06:31:25;5.00;;;2.03;;
52838;SDS011;39219;53.678;9.856;2022-07-04T06:33:51;5.30;;;2.45;;
52838;SDS011;39219;53.678;9.856;2022-07-04T06:36:35;5.75;;;2.15;;
52838;SDS011;39219;53.678;9.856;2022-07-04T06:39:02;4.93;;;2.30;;
52838;SDS011;39219;53.678;9.856;2022-07-04T06:41:28;3.67;;;1.90;;
52838;SDS011;39219;53.678;9.856;2022-07-04T06:43:55;3.42;;;1.83;;
52838;SDS011;39219;53.678;9.856;2022-07-04T06:46:23;5.43;;;2.05;;
52838;SDS011;39219;53.678;9.856;2022-07-04T06:48:50;4.75;;;1.88;;
52838;SDS011;39219;53.678;9.856;2022-07-04T06:51:16;2.70;;;1.65;;
52838;SDS011;39219;53.678;9.856;2022-07-04T06:53:43;4.07;;;1.63;;
52838;SDS011;39219;53.678;9.856;2022-07-04T06:56:10;4.05;;;1.73;;
52838;SDS011;39219;53.678;9.856;2022-07-04T06:58:37;5.07;;;1.80;;
52838;SDS011;39219;53.678;9.856;2022-07-04T07:01:03;3.20;;;1.50;;
52838;SDS011;39219;53.678;9.856;2022-07-04T07:03:31;3.78;;;1.67;;
52838;SDS011;39219;53.678;9.856;2022-07-04T07:05:58;4.40;;;1.88;;
52838;SDS011;39219;53.678;9.856;2022-07-04T07:08:24;5.07;;;1.70;;
52838;SDS011;39219;53.678;9.856;2022-07-04T07:10:51;4.78;;;1.98;;
52838;SDS011;39219;53.678;9.856;2022-07-04T07:13:18;3.53;;;1.67;;
52838;SDS011;39219;53.678;9.856;2022-07-04T07:15:44;2.90;;;1.67;;
52838;SDS011;39219;53.678;9.856;2022-07-04T07:18:11;3.38;;;1.73;;
52838;SDS011;39219;53.678;9.856;2022-07-04T07:20:39;2.67;;;1.33;;
52838;SDS011;39219;53.678;9.856;2022-07-04T07:23:05;4.60;;;1.55;;
52838;SDS011;39219;53.678;9.856;2022-07-04T07:25:32;2.58;;;1.70;;
52838;SDS011;39219;53.678;9.856;2022-07-04T07:27:58;5.00;;;1.60;;
52838;SDS011;39219;53.678;9.856;2022-07-04T07:30:25;3.70;;;1.50;;
52838;SDS011;39219;53.678;9.856;2022-07-04T07:32:52;4.32;;;1.75;;
52838;SDS011;39219;53.678;9.856;2022-07-04T07:35:18;4.28;;;1.70;;
52838;SDS011;39219;53.678;9.856;2022-07-04T07:37:48;4.28;;;1.75;;
52838;SDS011;39219;53.678;9.856;2022-07-04T07:40:14;4.30;;;1.85;;
52838;SDS011;39219;53.678;9.856;2022-07-04T07:42:41;5.03;;;1.85;;
52838;SDS011;39219;53.678;9.856;2022-07-04T07:45:08;4.45;;;1.60;;
52838;SDS011;39219;53.678;9.856;2022-07-04T07:47:34;2.55;;;1.38;;
52838;SDS011;39219;53.678;9.856;2022-07-04T07:50:01;3.30;;;1.63;;
52838;SDS011;39219;53.678;9.856;2022-07-04T07:52:29;3.03;;;1.10;;
52838;SDS011;39219;53.678;9.856;2022-07-04T07:54:57;4.43;;;1.50;;
52838;SDS011;39219;53.678;9.856;2022-07-04T07:57:24;3.45;;;1.10;;
52838;SDS011;39219;53.678;9.856;2022-07-04T07:59:50;3.45;;;1.05;;
52838;SDS011;39219;53.678;9.856;2022-07-04T08:02:17;3.95;;;1.10;;
52838;SDS011;39219;53.678;9.856;2022-07-04T08:04:43;4.13;;;1.60;;
52838;SDS011;39219;53.678;9.856;2022-07-04T08:07:10;3.63;;;1.50;;
52838;SDS011;39219;53.678;9.856;2022-07-04T08:09:38;2.97;;;1.42;;
52838;SDS011;39219;53.678;9.856;2022-07-04T08:12:06;4.38;;;1.40;;
52838;SDS011;39219;53.678;9.856;2022-07-04T08:14:33;2.67;;;1.10;;
52838;SDS011;39219;53.678;9.856;2022-07-04T08:17:01;2.90;;;1.10;;
52838;SDS011;39219;53.678;9.856;2022-07-04T08:19:28;2.38;;;1.10;;
52838;SDS011;39219;53.678;9.856;2022-07-04T08:21:54;3.42;;;1.25;;
52838;SDS011;39219;53.678;9.856;2022-07-04T08:24:21;3.55;;;1.45;;
52838;SDS011;39219;53.678;9.856;2022-07-04T08:26:48;3.05;;;1.33;;
52838;SDS011;39219;53.678;9.856;2022-07-04T08:29:16;3.92;;;1.40;;
52838;SDS011;39219;53.678;9.856;2022-07-04T08:31:42;2.00;;;1.20;;
52838;SDS011;39219;53.678;9.856;2022-07-04T08:34:09;2.65;;;1.10;;
52838;SDS011;39219;53.678;9.856;2022-07-04T08:36:35;3.53;;;1.20;;
52838;SDS011;39219;53.678;9.856;2022-07-04T08:39:02;4.18;;;1.40;;
52838;SDS011;39219;53.678;9.856;2022-07-04T08:41:28;4.05;;;1.23;;
52838;SDS011;39219;53.678;9.856;2022-07-04T08:44:03;4.68;;;1.27;;
52838;SDS011;39219;53.678;9.856;2022-07-04T08:46:33;2.85;;;1.35;;
52838;SDS011;39219;53.678;9.856;2022-07-04T08:49:03;2.63;;;0.90;;
52838;SDS011;39219;53.678;9.856;2022-07-04T08:51:38;4.18;;;1.02;;
52838;SDS011;39219;53.678;9.856;2022-07-04T08:56:51;3.90;;;1.33;;
52838;SDS011;39219;53.678;9.856;2022-07-04T08:59:35;3.25;;;1.27;;
52838;SDS011;39219;53.678;9.856;2022-07-04T09:02:04;3.00;;;1.27;;
52838;SDS011;39219;53.678;9.856;2022-07-04T09:04:31;1.40;;;1.10;;
52838;SDS011;39219;53.678;9.856;2022-07-04T09:06:59;5.85;;;1.40;;
52838;SDS011;39219;53.678;9.856;2022-07-04T09:09:27;1.42;;;1.00;;
52838;SDS011;39219;53.678;9.856;2022-07-04T09:11:54;2.65;;;1.02;;
52838;SDS011;39219;53.678;9.856;2022-07-04T09:14:20;2.55;;;1.27;;
52838;SDS011;39219;53.678;9.856;2022-07-04T09:16:47;3.78;;;1.50;;
52838;SDS011;39219;53.678;9.856;2022-07-04T09:19:20;2.72;;;1.27;;
52838;SDS011;39219;53.678;9.856;2022-07-04T09:21:47;2.90;;;1.38;;
52838;SDS011;39219;53.678;9.856;2022-07-04T09:24:15;4.18;;;1.35;;
52838;SDS011;39219;53.678;9.856;2022-07-04T09:26:43;3.25;;;1.27;;
52838;SDS011;39219;53.678;9.856;2022-07-04T09:29:10;1.98;;;1.20;;
52838;SDS011;39219;53.678;9.856;2022-07-04T09:31:37;2.63;;;1.08;;
52838;SDS011;39219;53.678;9.856;2022-07-04T09:34:05;2.17;;;0.98;;
52838;SDS011;39219;53.678;9.856;2022-07-04T09:36:34;2.10;;;0.93;;
52838;SDS011;39219;53.678;9.856;2022-07-04T09:39:16;1.33;;;1.00;;
52838;SDS011;39219;53.678;9.856;2022-07-04T09:41:52;2.60;;;1.17;;
52838;SDS011;39219;53.678;9.856;2022-07-04T09:44:20;1.60;;;1.00;;
52838;SDS011;39219;53.678;9.856;2022-07-04T09:46:47;2.25;;;1.05;;
52838;SDS011;39219;53.678;9.856;2022-07-04T09:49:14;3.45;;;1.02;;
52838;SDS011;39219;53.678;9.856;2022-07-04T09:51:42;1.67;;;0.98;;
52838;SDS011;39219;53.678;9.856;2022-07-04T09:54:20;2.13;;;0.90;;
52838;SDS011;39219;53.678;9.856;2022-07-04T09:56:53;4.50;;;1.05;;
52838;SDS011;39219;53.678;9.856;2022-07-04T09:59:20;2.58;;;0.93;;
52838;SDS011;39219;53.678;9.856;2022-07-04T10:01:47;3.03;;;0.90;;
52838;SDS011;39219;53.678;9.856;2022-07-04T10:04:14;2.70;;;0.80;;
52838;SDS011;39219;53.678;9.856;2022-07-04T10:06:43;3.60;;;1.17;;
52838;SDS011;39219;53.678;9.856;2022-07-04T10:09:11;2.42;;;1.10;;
52838;SDS011;39219;53.678;9.856;2022-07-04T10:11:39;2.15;;;0.85;;
52838;SDS011;39219;53.678;9.856;2022-07-04T10:14:07;2.08;;;1.10;;
52838;SDS011;39219;53.678;9.856;2022-07-04T10:16:35;3.28;;;1.05;;
52838;SDS011;39219;53.678;9.856;2022-07-04T10:19:03;2.83;;;0.82;;
52838;SDS011;39219;53.678;9.856;2022-07-04T10:21:31;2.10;;;0.80;;
52838;SDS011;39219;53.678;9.856;2022-07-04T10:23:59;2.70;;;0.98;;
52838;SDS011;39219;53.678;9.856;2022-07-04T10:26:28;1.83;;;0.80;;
52838;SDS011;39219;53.678;9.856;2022-07-04T10:28:55;2.75;;;0.68;;
52838;SDS011;39219;53.678;9.856;2022-07-04T10:31:22;3.33;;;1.05;;
52838;SDS011;39219;53.678;9.856;2022-07-04T10:33:51;1.17;;;0.77;;
52838;SDS011;39219;53.678;9.856;2022-07-04T10:36:20;2.58;;;1.02;;
52838;SDS011;39219;53.678;9.856;2022-07-04T10:38:48;1.33;;;0.70;;
52838;SDS011;39219;53.678;9.856;2022-07-04T10:41:18;3.42;;;0.80;;
52838;SDS011;39219;53.678;9.856;2022-07-04T10:43:53;1.58;;;0.90;;
52838;SDS011;39219;53.678;9.856;2022-07-04T10:46:26;3.63;;;1.02;;
52838;SDS011;39219;53.678;9.856;2022-07-04T10:48:59;3.73;;;1.20;;
52838;SDS011;39219;53.678;9.856;2022-07-04T10:51:40;2.50;;;0.95;;
52838;SDS011;39219;53.678;9.856;2022-07-04T10:54:09;5.22;;;1.05;;
52838;SDS011;39219;53.678;9.856;2022-07-04T10:56:43;3.60;;;1.10;;
52838;SDS011;39219;53.678;9.856;2022-07-04T10:59:20;2.30;;;0.90;;
52838;SDS011;39219;53.678;9.856;2022-07-04T11:01:51;4.20;;;1.20;;
52838;SDS011;39219;53.678;9.856;2022-07-04T11:04:50;3.30;;;1.15;;
52838;SDS011;39219;53.678;9.856;2022-07-04T11:07:19;3.25;;;1.17;;
52838;SDS011;39219;53.678;9.856;2022-07-04T11:10:17;1.83;;;1.38;;
52838;SDS011;39219;53.678;9.856;2022-07-04T11:13:03;3.60;;;1.23;;
52838;SDS011;39219;53.678;9.856;2022-07-04T11:18:25;2.25;;;1.20;;
52838;SDS011;39219;53.678;9.856;2022-07-04T11:20:53;2.75;;;1.35;;
52838;SDS011;39219;53.678;9.856;2022-07-04T11:23:20;3.50;;;1.10;;
52838;SDS011;39219;53.678;9.856;2022-07-04T11:25:47;2.05;;;1.05;;
52838;SDS011;39219;53.678;9.856;2022-07-04T11:28:20;2.25;;;1.27;;
52838;SDS011;39219;53.678;9.856;2022-07-04T11:30:48;2.83;;;1.27;;
52838;SDS011;39219;53.678;9.856;2022-07-04T11:33:16;2.28;;;1.10;;
52838;SDS011;39219;53.678;9.856;2022-07-04T11:35:43;3.38;;;1.08;;
52838;SDS011;39219;53.678;9.856;2022-07-04T11:38:10;1.63;;;1.00;;
52838;SDS011;39219;53.678;9.856;2022-07-04T11:40:43;2.17;;;1.02;;
52838;SDS011;39219;53.678;9.856;2022-07-04T11:43:29;4.60;;;1.73;;
52838;SDS011;39219;53.678;9.856;2022-07-04T11:46:13;2.72;;;1.17;;
52838;SDS011;39219;53.678;9.856;2022-07-04T11:48:39;4.22;;;1.42;;
52838;SDS011;39219;53.678;9.856;2022-07-04T11:51:15;4.85;;;1.42;;
52838;SDS011;39219;53.678;9.856;2022-07-04T11:53:42;8.45;;;1.30;;
52838;SDS011;39219;53.678;9.856;2022-07-04T11:56:08;3.60;;;1.48;;
52838;SDS011;39219;53.678;9.856;2022-07-04T11:58:40;4.35;;;1.25;;
52838;SDS011;39219;53.678;9.856;2022-07-04T12:01:07;2.63;;;1.20;;
52838;SDS011;39219;53.678;9.856;2022-07-04T12:03:35;4.55;;;1.33;;
52838;SDS011;39219;53.678;9.856;2022-07-04T12:06:01;3.83;;;1.33;;
52838;SDS011;39219;53.678;9.856;2022-07-04T12:08:28;4.95;;;1.38;;
52838;SDS011;39219;53.678;9.856;2022-07-04T12:10:55;2.17;;;1.25;;
52838;SDS011;39219;53.678;9.856;2022-07-04T12:13:21;5.95;;;1.48;;
52838;SDS011;39219;53.678;9.856;2022-07-04T12:15:49;2.58;;;0.90;;
52838;SDS011;39219;53.678;9.856;2022-07-04T12:18:18;3.22;;;1.27;;
52838;SDS011;39219;53.678;9.856;2022-07-04T12:20:46;2.78;;;1.10;;
52838;SDS011;39219;53.678;9.856;2022-07-04T12:23:13;2.58;;;1.10;;
52838;SDS011;39219;53.678;9.856;2022-07-04T12:25:39;2.60;;;1.08;;
52838;SDS011;39219;53.678;9.856;2022-07-04T12:28:08;2.08;;;1.00;;
52838;SDS011;39219;53.678;9.856;2022-07-04T12:30:36;3.33;;;1.05;;
52838;SDS011;39219;53.678;9.856;2022-07-04T12:33:05;9.95;;;1.50;;
52838;SDS011;39219;53.678;9.856;2022-07-04T12:35:33;3.15;;;1.20;;
52838;SDS011;39219;53.678;9.856;2022-07-04T12:38:02;1.95;;;1.10;;
52838;SDS011;39219;53.678;9.856;2022-07-04T12:40:30;2.80;;;1.02;;
52838;SDS011;39219;53.678;9.856;2022-07-04T12:42:56;3.40;;;1.23;;
52838;SDS011;39219;53.678;9.856;2022-07-04T12:45:23;3.05;;;1.38;;
52838;SDS011;39219;53.678;9.856;2022-07-04T12:47:51;1.50;;;1.02;;
52838;SDS011;39219;53.678;9.856;2022-07-04T12:50:25;4.70;;;1.35;;
52838;SDS011;39219;53.678;9.856;2022-07-04T12:52:53;2.53;;;1.13;;
52838;SDS011;39219;53.678;9.856;2022-07-04T12:55:19;4.65;;;1.30;;
52838;SDS011;39219;53.678;9.856;2022-07-04T12:57:46;2.75;;;1.10;;
52838;SDS011;39219;53.678;9.856;2022-07-04T13:00:12;2.63;;;1.15;;
52838;SDS011;39219;53.678;9.856;2022-07-04T13:02:39;4.30;;;1.50;;
52838;SDS011;39219;53.678;9.856;2022-07-04T13:05:05;3.70;;;1.30;;
52838;SDS011;39219;53.678;9.856;2022-07-04T13:07:33;5.05;;;1.45;;
52838;SDS011;39219;53.678;9.856;2022-07-04T13:10:00;3.03;;;1.30;;
52838;SDS011;39219;53.678;9.856;2022-07-04T13:12:27;3.58;;;1.55;;
52838;SDS011;39219;53.678;9.856;2022-07-04T13:14:54;3.72;;;1.10;;
52838;SDS011;39219;53.678;9.856;2022-07-04T13:17:23;3.35;;;1.30;;
52838;SDS011;39219;53.678;9.856;2022-07-04T13:19:50;3.67;;;1.20;;
52838;SDS011;39219;53.678;9.856;2022-07-04T13:22:18;6.35;;;1.40;;
52838;SDS011;39219;53.678;9.856;2022-07-04T13:24:47;3.58;;;1.33;;
52838;SDS011;39219;53.678;9.856;2022-07-04T13:27:13;4.05;;;1.60;;
52838;SDS011;39219;53.678;9.856;2022-07-04T13:29:40;4.53;;;1.70;;
52838;SDS011;39219;53.678;9.856;2022-07-04T13:32:07;5.07;;;1.70;;
52838;SDS011;39219;53.678;9.856;2022-07-04T13:34:34;2.85;;;1.40;;
52838;SDS011;39219;53.678;9.856;2022-07-04T13:37:01;6.45;;;1.52;;
52838;SDS011;39219;53.678;9.856;2022-07-04T13:39:27;3.22;;;1.30;;
52838;SDS011;39219;53.678;9.856;2022-07-04T13:41:55;3.97;;;1.50;;
52838;SDS011;39219;53.678;9.856;2022-07-04T13:44:22;7.15;;;1.90;;
52838;SDS011;39219;53.678;9.856;2022-07-04T13:46:48;3.92;;;1.63;;
52838;SDS011;39219;53.678;9.856;2022-07-04T13:49:15;5.57;;;1.50;;
52838;SDS011;39219;53.678;9.856;2022-07-04T13:51:41;4.35;;;1.80;;
52838;SDS011;39219;53.678;9.856;2022-07-04T13:54:08;3.55;;;1.45;;
52838;SDS011;39219;53.678;9.856;2022-07-04T13:56:35;4.95;;;1.63;;
52838;SDS011;39219;53.678;9.856;2022-07-04T13:59:03;2.53;;;1.15;;
52838;SDS011;39219;53.678;9.856;2022-07-04T14:01:32;3.63;;;1.65;;
52838;SDS011;39219;53.678;9.856;2022-07-04T14:03:59;2.78;;;1.30;;
52838;SDS011;39219;53.678;9.856;2022-07-04T14:06:25;3.10;;;1.50;;
52838;SDS011;39219;53.678;9.856;2022-07-04T14:08:52;4.95;;;2.00;;
52838;SDS011;39219;53.678;9.856;2022-07-04T14:11:18;5.38;;;1.70;;
52838;SDS011;39219;53.678;9.856;2022-07-04T14:13:45;3.15;;;1.50;;
52838;SDS011;39219;53.678;9.856;2022-07-04T14:16:14;3.97;;;1.80;;
52838;SDS011;39219;53.678;9.856;2022-07-04T14:18:41;3.58;;;1.50;;
52838;SDS011;39219;53.678;9.856;2022-07-04T14:21:07;3.72;;;1.55;;
52838;SDS011;39219;53.678;9.856;2022-07-04T14:23:33;2.63;;;1.50;;
52838;SDS011;39219;53.678;9.856;2022-07-04T14:26:06;4.30;;;1.50;;
52838;SDS011;39219;53.678;9.856;2022-07-04T14:28:33;3.17;;;1.30;;
52838;SDS011;39219;53.678;9.856;2022-07-04T14:31:00;2.13;;;1.42;;
52838;SDS011;39219;53.678;9.856;2022-07-04T14:33:28;3.00;;;1.42;;
52838;SDS011;39219;53.678;9.856;2022-07-04T14:35:54;4.63;;;1.90;;
52838;SDS011;39219;53.678;9.856;2022-07-04T14:38:21;4.60;;;1.35;;
52838;SDS011;39219;53.678;9.856;2022-07-04T14:40:48;3.80;;;1.30;;
52838;SDS011;39219;53.678;9.856;2022-07-04T14:43:15;2.25;;;1.38;;
52838;SDS011;39219;53.678;9.856;2022-07-04T14:45:43;5.38;;;1.58;;
52838;SDS011;39219;53.678;9.856;2022-07-04T14:48:10;8.77;;;4.50;;
52838;SDS011;39219;53.678;9.856;2022-07-04T14:50:37;4.97;;;2.90;;